• Join FlightAware (Why Join?)
  • Login
  • US Flag 
07:59AM EST


 

Airport Tracker/Info


-or-


 

Live Flight TrackerFlight Track Log ✈ AWE574 ✈ 30-Aug-2014 ✈ KPHX - KTPA

Flight Track Log - Related Links

Times and Time Zones

All times are in EDT time to prevent confusion due to time zone crossing. See the AWE574 flight status page for this flight to view local times or setup timezone preferences in your user account.

Time Position Orientation Groundspeed Altitude Reporting Facility
EDT Latitude Longitude Course Direction KTS MPH feet Rate Location/Type
03:42PM 33.4333 -111.9833 82° East 196 226 2,000  Level Phoenix TRACON
03:43PM 33.4333 -111.9667 90° East 196 226 2,600 960 Climbing Phoenix TRACON
03:44PM 33.4333 -111.8833 90° East 224 258 3,300 1,320 Climbing Phoenix TRACON
03:45PM 33.4708 -111.5425 83° East  Level FlightAware Approximate
03:45PM 33.4167 -111.8000 103° East 268 308 5,300  Level Phoenix TRACON
03:46PM 33.4928 -111.3884 68° East  Level FlightAware Approximate
03:46PM 33.4333 -111.7000 79° East 291 335 7,600  Level Phoenix TRACON
03:47PM 33.5148 -111.2340 82° East  Level FlightAware Approximate
03:47PM 33.4586 -111.6003 73° East 292 336 10,400  Level Albuquerque Center
03:48PM 33.4800 -111.4958 76° East 324 373 11,200 1,260 Climbing Albuquerque Center
03:49PM 33.5028 -111.3764 77° East 365 420 13,100 1,560 Climbing Albuquerque Center
03:50PM 33.5161 -111.2544 82° East 368 423 14,400 1,260 Climbing Albuquerque Center
03:51PM 33.5306 -111.1242 82° East 391 450 15,700 1,260 Climbing Albuquerque Center
03:52PM 33.5458 -110.9903 82° East 405 466 17,100 1,500 Climbing Albuquerque Center
03:53PM 33.5767 -110.8292 77° East 414 476 18,800 1,440 Climbing Albuquerque Center
03:54PM 33.6192 -110.6972 69° East 420 483 20,100 1,080 Climbing Albuquerque Center
03:55PM 33.6622 -110.5622 69° East 428 493 21,100 1,020 Climbing Albuquerque Center
03:56PM 33.7072 -110.4253 68° East 434 499 22,200 960 Climbing Albuquerque Center
03:57PM 33.7517 -110.2842 69° East 443 510 23,100 960 Climbing Albuquerque Center
03:58PM 33.7992 -110.1383 69° East 454 522 24,200 900 Climbing Albuquerque Center
03:59PM 33.8467 -109.9917 69° East 462 532 25,000 780 Climbing Albuquerque Center
04:00PM 33.8933 -109.8436 69° East 466 536 25,900 780 Climbing Albuquerque Center
04:01PM 33.9289 -109.6897 74° East 478 550 26,700 720 Climbing Albuquerque Center
04:02PM 33.9617 -109.4944 79° East 491 565 27,400 660 Climbing Albuquerque Center
04:03PM 33.9897 -109.3311 78° East 492 566 28,100 720 Climbing Albuquerque Center
04:04PM 34.0169 -109.1667 79° East 497 572 28,900 780 Climbing Albuquerque Center
04:05PM 34.0442 -108.9975 79° East 498 573 29,800 780 Climbing Albuquerque Center
04:06PM 34.0656 -108.8406 81° East 498 573 30,600 780 Climbing Albuquerque Center
04:07PM 34.0883 -108.6697 81° East 498 573 31,400 780 Climbing Albuquerque Center
04:08PM 34.1086 -108.5039 82° East 500 575 32,200 780 Climbing Albuquerque Center
04:09PM 34.1311 -108.3264 81° East 499 574 33,000 360 Climbing Albuquerque Center
04:10PM 34.1506 -108.1633 82° East 497 572 33,000  Level Albuquerque Center
04:11PM 34.1706 -108.0006 82° East 496 571 33,000  Level Albuquerque Center
04:12PM 34.1894 -107.8369 82° East 496 571 33,000  Level Albuquerque Center
04:13PM 34.2078 -107.6772 82° East 491 565 33,000  Level Albuquerque Center
04:14PM 34.2275 -107.5186 81° East 487 560 33,000  Level Albuquerque Center
04:15PM 34.2497 -107.3244 82° East 486 559 33,000  Level Albuquerque Center
04:16PM 34.2689 -107.1614 82° East 487 560 33,000  Level Albuquerque Center
04:17PM 34.2872 -106.9978 82° East 490 564 33,000  Level Albuquerque Center
04:18PM 34.3050 -106.8356 82° East 493 567 33,000  Level Albuquerque Center
04:19PM 34.3275 -106.6531 81° East 493 567 33,000  Level Albuquerque Center
04:21PM 34.3428 -106.5086 83° East 494 568 33,000  Level Albuquerque Center
04:22PM 34.3600 -106.3433 83° East 498 573 33,000  Level Albuquerque Center
04:23PM 34.3811 -106.1556 82° East 491 565 33,000  Level Albuquerque Center
04:24PM 34.3967 -105.9897 83° East 490 564 33,000  Level Albuquerque Center
04:25PM 34.4147 -105.8244 82° East 490 564 33,000  Level Albuquerque Center
04:26PM 34.4308 -105.6592 83° East 490 564 33,000  Level Albuquerque Center
04:27PM 34.4481 -105.4939 83° East 491 565 33,000  Level Albuquerque Center
04:28PM 34.4644 -105.3264 83° East 492 566 33,000  Level Albuquerque Center
04:29PM 34.4808 -105.1600 83° East 492 566 33,000  Level Albuquerque Center
04:30PM 34.4964 -104.9956 83° East 492 566 33,000  Level Albuquerque Center
04:31PM 34.5125 -104.8319 83° East 492 566 33,000  Level Albuquerque Center
04:32PM 34.5311 -104.6406 83° East 491 565 33,000  Level Albuquerque Center
04:33PM 34.5467 -104.4764 83° East 490 564 33,000  Level Albuquerque Center
04:34PM 34.5611 -104.3114 84° East 490 564 33,000  Level Albuquerque Center
04:35PM 34.5767 -104.1489 83° East 487 560 33,000  Level Albuquerque Center
04:36PM 34.5914 -103.9822 84° East 491 565 33,000  Level Albuquerque Center
04:37PM 34.5917 -103.8147 90° East 497 572 33,000  Level Albuquerque Center
04:38PM 34.5747 -103.6456 97° East 500 575 33,100  Climbing Albuquerque Center
04:39PM 34.5594 -103.4789 96° East 499 574 33,000 -60 Descending Albuquerque Center
04:40PM 34.5536 -103.3111 92° East 499 574 33,000  Level Albuquerque Center
04:41PM 34.5500 -103.1444 91° East 497 572 33,000  Level Albuquerque Center
04:42PM 34.5650 -102.9786 84° East 495 570 33,000  Level Albuquerque Center
04:43PM 34.5797 -102.7867 85° East 493 567 33,000  Level Albuquerque Center
04:44PM 34.5939 -102.6311 84° East 492 566 33,000  Level Albuquerque Center
04:45PM 34.6083 -102.4681 84° East 491 565 33,000  Level Albuquerque Center
04:46PM 34.6214 -102.3058 84° East 490 564 33,000  Level Albuquerque Center
04:47PM 34.6350 -102.1422 84° East 490 564 33,000  Level Albuquerque Center
04:48PM 34.6483 -101.9803 84° East 488 562 33,000  Level Albuquerque Center
04:49PM 34.6636 -101.7864 84° East 488 562 33,000  Level Albuquerque Center
04:50PM 34.6764 -101.6211 85° East 489 563 33,000  Level Albuquerque Center
04:51PM 34.6894 -101.4581 84° East 491 565 33,000  Level Albuquerque Center
04:52PM 34.7014 -101.2967 85° East 490 564 33,000  Level Albuquerque Center
04:53PM 34.7133 -101.1331 85° East 490 564 33,000  Level Albuquerque Center
04:54PM 34.7256 -100.9683 85° East 490 564 33,000  Level Albuquerque Center
04:55PM 34.7369 -100.8053 85° East 490 564 33,000  Level Albuquerque Center
04:56PM 34.7517 -100.6083 85° East 490 564 33,000  Level Albuquerque Center
04:57PM 34.7622 -100.4436 85° East 490 564 33,000  Level Albuquerque Center
04:58PM 34.7733 -100.2744 85° East 488 562 33,000  Level Albuquerque Center
04:59PM 34.7839 -100.1114 85° East 486 559 33,000 -60 Level Albuquerque Center
05:00PM 34.7944 -99.9481 85° East 486 559 32,900  Descending Albuquerque Center
05:01PM 34.8058 -99.7847 85° East 486 559 33,000  Climbing Albuquerque Center
05:02PM 34.8150 -99.6225 86° East 484 557 32,900  Descending Albuquerque Center
05:03PM 34.8250 -99.4569 86° East 485 558 33,000  Climbing Albuquerque Center
05:04PM 34.8353 -99.2925 86° East 486 559 33,000  Level Albuquerque Center
05:06PM 34.8489 -99.0622 86° East 494 568 33,000  Level Fort Worth Center
05:07PM 34.8578 -98.8958 86° East 494 568 33,000  Level Fort Worth Center
05:08PM 34.8669 -98.7275 86° East 496 571 33,000  Level Fort Worth Center
05:09PM 34.8772 -98.5258 86° East 498 573 33,000  Level Fort Worth Center
05:10PM 34.8836 -98.3772 87° East 498 573 33,000  Level Fort Worth Center
05:11PM 34.9047 -98.2106 81° East 502 578 33,000  Level Fort Worth Center
05:12PM 34.9317 -98.0131 80° East 498 573 33,000  Level Fort Worth Center
05:13PM 34.9547 -97.8475 80° East 502 578 33,000  Level Fort Worth Center
05:14PM 34.9781 -97.6847 80° East 497 572 33,000  Level Fort Worth Center
05:15PM 35.0025 -97.5200 80° East 502 578 33,000  Level Fort Worth Center
05:16PM 35.0286 -97.3556 79° East 502 578 33,000  Level Fort Worth Center
05:17PM 35.0550 -97.1931 79° East 499 574 33,000  Level Fort Worth Center
05:18PM 35.0881 -96.9989 78° East 496 571 33,000  Level Fort Worth Center
05:19PM 35.1167 -96.8344 78° East 497 572 33,000  Level Fort Worth Center
05:20PM 35.1447 -96.6714 78° East 497 572 33,000  Level Fort Worth Center
05:21PM 35.1764 -96.5086 77° East 497 572 33,000  Level Fort Worth Center
05:22PM 35.2142 -96.3481 74° East 495 570 33,000  Level Fort Worth Center
05:23PM 35.2600 -96.1889 71° East 499 574 33,000  Level Fort Worth Center
05:24PM 35.3144 -95.9958 71° East 501 577 33,000 -60 Level Fort Worth Center
05:25PM 35.3597 -95.8356 71° East 501 577 32,900 -60 Descending Fort Worth Center
05:26PM 35.4069 -95.6731 70° East 504 580 32,900  Level Fort Worth Center
05:27PM 35.4544 -95.5136 70° East 504 580 33,000  Climbing Fort Worth Center
05:28PM 35.4817 -95.3500 78° East 501 577 33,000 -60 Level Fort Worth Center
05:29PM 35.4775 -95.1906 92° East 473 544 32,900 -60 Descending Fort Worth Center
05:31PM 35.4644 -94.9969 95° East 472 543 32,900  Level Fort Worth Center
05:32PM 35.4533 -94.8333 95° East 479 551 33,000  Climbing Fort Worth Center
05:33PM 35.4422 -94.6658 95° East 487 560 33,000  Level Fort Worth Center
05:34PM 35.4300 -94.4969 95° East 494 568 33,000  Level Fort Worth Center
05:35PM 35.4178 -94.3269 95° East 497 572 33,000  Level Fort Worth Center
05:36PM 35.4053 -94.1575 95° East 498 573 33,100  Climbing Fort Worth Center
05:37PM 35.3933 -93.9881 95° East 498 573 33,000 -60 Descending Fort Worth Center
05:38PM 35.3794 -93.8189 96° East 498 573 33,000  Level Fort Worth Center
05:39PM 35.3658 -93.6514 96° East 498 573 33,000  Level Fort Worth Center
05:40PM 35.3469 -93.4183 96° East 495 570 33,000  Level Memphis Center
05:41PM 35.3303 -93.2278 96° East 495 570 33,000  Level Memphis Center
05:42PM 35.3158 -93.0586 96° East 496 571 33,000  Level Memphis Center
05:43PM 35.3000 -92.8883 96° East 501 577 33,000  Level Memphis Center
05:44PM 35.2861 -92.7200 96° East 501 577 33,000  Level Memphis Center
05:45PM 35.2725 -92.5611 96° East 493 567 33,000  Level Memphis Center
05:46PM 35.2581 -92.3958 96° East 492 566 33,000  Level Memphis Center
05:47PM 35.2406 -92.2311 97° East 491 565 33,000  Level Memphis Center
05:48PM 35.2261 -92.0664 96° East 491 565 33,000  Level Memphis Center
05:49PM 35.2094 -91.8717 96° East 485 558 33,000  Level Memphis Center
05:50PM 35.1939 -91.7106 97° East 483 556 33,000  Level Memphis Center
05:51PM 35.1783 -91.5494 97° East 482 555 33,000  Level Memphis Center
05:52PM 35.1633 -91.3903 97° East 478 550 33,000  Level Memphis Center
05:53PM 35.1481 -91.2364 97° East 475 547 33,000  Level Memphis Center
05:54PM 35.1319 -91.0778 97° East 475 547 33,000  Level Memphis Center
05:55PM 35.1164 -90.9183 97° East 475 547 33,000  Level Memphis Center
05:56PM 35.0997 -90.7589 97° East 475 547 33,000  Level Memphis Center
05:57PM 35.0789 -90.5661 97° East 475 547 33,000  Level Memphis Center
05:58PM 35.0619 -90.4044 97° East 477 549 33,000  Level Memphis Center
05:59PM 35.0442 -90.2425 98° East 478 550 33,000  Level Memphis Center
06:01PM 35.0436 -90.0792 90° East 480 552 33,000  Level Memphis Center
06:02PM 35.0450 -89.9117 89° East 481 554 33,000  Level Memphis Center
06:03PM 35.0464 -89.7422 89° East 487 560 33,000  Level Memphis Center
06:04PM 35.0458 -89.5722 90° East 489 563 33,000  Level Memphis Center
06:05PM 35.0475 -89.4019 89° East 493 567 33,000  Level Memphis Center
06:06PM 35.0647 -89.2353 83° East 493 567 33,000  Level Memphis Center
06:07PM 35.0833 -89.0686 82° East 493 567 33,000  Level Memphis Center
06:08PM 35.0969 -88.9022 84° East 493 567 33,000  Level Memphis Center
06:09PM 35.1122 -88.7372 83° East 493 567 33,000  Level Memphis Center
06:10PM 35.1267 -88.5725 84° East 492 566 33,000  Level Memphis Center
06:11PM 35.0894 -88.3958 104° East 484 557 33,000  Level Memphis Center
06:12PM 35.0050 -88.2794 132° Southeast 461 531 33,000  Level Memphis Center
06:13PM 34.9164 -88.1667 134° Southeast 461 531 33,000  Level Memphis Center
06:14PM 34.8225 -88.0642 138° Southeast 458 527 33,000  Level Memphis Center
06:15PM 34.7533 -87.9317 122° Southeast 464 534 33,000  Level Memphis Center
06:16PM 34.7014 -87.7861 113° Southeast 467 537 33,000  Level Memphis Center
06:17PM 34.6464 -87.6058 110° East 468 539 33,000  Level Memphis Center
06:18PM 34.6017 -87.4511 109° East 474 545 33,000  Level Memphis Center
06:19PM 34.5622 -87.3247 111° Southeast 474 545 33,000  Level Memphis Center
06:20PM 34.4911 -87.1578 117° Southeast 474 545 33,000  Level Memphis Center
06:21PM 34.4236 -87.0208 121° Southeast 473 544 33,000  Level Memphis Center
06:22PM 34.3453 -86.8956 127° Southeast 471 542 33,000  Level Memphis Center
06:23PM 34.2697 -86.7692 126° Southeast 464 534 33,000 -60 Level Memphis Center
06:24PM 34.1933 -86.6422 126° Southeast 464 534 32,900  Descending Memphis Center
06:25PM 34.1139 -86.5128 127° Southeast 470 541 33,100 60 Climbing Atlanta Center
06:26PM 34.0350 -86.3825 126° Southeast 475 547 33,100 -60 Level Atlanta Center
06:27PM 33.9539 -86.2525 127° Southeast 475 547 33,000 -60 Descending Atlanta Center
06:28PM 33.8728 -86.1231 127° Southeast 481 554 33,000  Level Atlanta Center
06:29PM 33.7933 -85.9936 126° Southeast 481 554 33,000  Level Atlanta Center
06:30PM 33.7139 -85.8669 127° Southeast 481 554 33,000 -60 Level Atlanta Center
06:31PM 33.6303 -85.7278 126° Southeast 473 544 32,900  Descending Atlanta Center
06:32PM 33.5486 -85.6017 128° Southeast 473 544 33,000 60 Climbing Atlanta Center
06:33PM 33.4686 -85.4733 127° Southeast 478 550 33,100  Climbing Atlanta Center
06:34PM 33.3844 -85.3425 128° Southeast 483 556 33,000 -60 Descending Atlanta Center
06:35PM 33.3086 -85.2169 126° Southeast 476 548 33,000  Level Atlanta Center
06:36PM 33.2283 -85.0917 127° Southeast 476 548 33,000  Level Atlanta Center
06:37PM 33.1500 -84.9692 127° Southeast 476 548 33,000  Level Atlanta Center
06:38PM 33.0714 -84.8494 128° Southeast 471 542 33,000  Level Atlanta Center
06:39PM 32.9867 -84.7272 130° Southeast 471 542 33,000  Level Atlanta Center
06:40PM 32.8975 -84.6178 134° Southeast 471 542 33,000  Level Atlanta Center
06:41PM 32.8039 -84.5083 135° Southeast 466 536 33,000  Level Atlanta Center
06:42PM 32.7019 -84.4142 142° Southeast 466 536 33,000  Level Atlanta Center
06:43PM 32.6042 -84.3100 138° Southeast 471 542 33,000  Level Atlanta Center
06:44PM 32.5125 -84.1964 134° Southeast 471 542 33,000  Level Atlanta Center
06:45PM 32.4250 -84.0806 132° Southeast 471 542 33,000 -240 Level Atlanta Center
06:46PM 32.3372 -83.9650 132° Southeast 471 542 32,600 -540 Descending Atlanta Center
06:47PM 32.2411 -83.8694 140° Southeast 471 542 32,000 -300 Descending Atlanta Center
06:48PM 32.1072 -83.7633 146° Southeast 474 545 32,000  Level Jacksonville Center
06:49PM 31.9969 -83.6789 147° Southeast 474 545 32,000  Level Jacksonville Center
06:50PM 31.8869 -83.5850 144° Southeast 485 558 32,000  Level Jacksonville Center
06:51PM 31.7706 -83.4814 143° Southeast 485 558 32,000  Level Jacksonville Center
06:52PM 31.6561 -83.3978 148° Southeast 485 558 32,000  Level Jacksonville Center
06:53PM 31.5417 -83.3167 149° Southeast 485 558 32,000  Level Jacksonville Center
06:54PM 31.4122 -83.2722 164° South 471 542 32,000 -60 Level Jacksonville Center
06:55PM 31.2828 -83.2353 166° South 477 549 31,900 -540 Descending Jacksonville Center
06:56PM 31.1472 -83.2131 172° South 487 560 31,000 -480 Descending Jacksonville Center
06:57PM 31.0136 -83.2028 176° South 487 560 31,000  Level Jacksonville Center
06:58PM 30.8819 -83.2047 181° South 481 554 31,000 -60 Level Jacksonville Center
06:59PM 30.7672 -83.2189 186° South 476 548 30,900 -60 Descending Jacksonville Center
07:00PM 30.6189 -83.2475 189° South 486 559 30,900  Level Jacksonville Center
07:01PM 30.4894 -83.2733 190° South 486 559 31,000  Climbing Jacksonville Center
07:02PM 30.3536 -83.2969 189° South 486 559 31,000  Level Jacksonville Center
07:03PM 30.2242 -83.3228 190° South 486 559 31,000  Level Jacksonville Center
07:04PM 30.0925 -83.3486 190° South 486 559 31,000 -60 Level Jacksonville Center
07:05PM 29.9586 -83.3744 189° South 486 559 30,900 -240 Descending Jacksonville Center
07:06PM 29.8228 -83.4025 190° South 486 559 30,600 -660 Descending Jacksonville Center
07:07PM 29.6914 -83.4258 189° South 486 559 29,700 -1,020 Descending Jacksonville Center
07:08PM 29.5575 -83.4489 189° South 486 559 28,700 -960 Descending Jacksonville Center
07:09PM 29.4281 -83.4719 189° South 486 559 27,800 -960 Descending Jacksonville Center
07:10PM 29.3006 -83.4975 190° South 486 559 26,800 -960 Descending Jacksonville Center
07:11PM 29.1775 -83.4872 176° South 440 506 25,900 -960 Descending Jacksonville Center
07:12PM 29.0756 -83.4200 150° Southeast 422 486 24,900 -1,500 Descending Jacksonville Center
07:13PM 28.9733 -83.3553 151° Southeast 413 475 22,900 -2,040 Descending Jacksonville Center
07:14PM 28.8756 -83.2933 151° Southeast 413 475 20,800 -2,760 Descending Jacksonville Center
07:15PM 28.7778 -83.2289 150° Southeast 413 475 17,400 -3,000 Descending Jacksonville Center
07:16PM 28.6797 -83.1669 151° Southeast 413 475 14,800 -2,640 Descending Jacksonville Center
07:17PM 28.5833 -83.1000 149° Southeast 393 452 12,300 -2,160 Descending Tampa TRACON
07:18PM 28.4833 -83.0500 156° South 363 418 10,600 -1,560 Descending Tampa TRACON
07:19PM 28.4333 -83.0000 139° Southeast 298 343 9,400 -1,320 Descending Tampa TRACON
07:20PM 28.4333 -82.9000 90° East 277 319 8,100 -1,200 Descending Tampa TRACON
07:21PM 28.4333 -82.8167 90° East 276 318 7,000 -720 Descending Tampa TRACON
07:22PM 28.4333 -82.7333 90° East 273 314 6,700 -540 Descending Tampa TRACON
07:23PM 28.4333 -82.6500 90° East 271 312 6,000 -360 Descending Tampa TRACON
07:24PM 28.4333 -82.5500 90° East 273 314 6,000  Level Tampa TRACON
07:25PM 28.4167 -82.4667 103° East 270 311 6,000  Level Tampa TRACON
07:26PM 28.4167 -82.3667 90° East 273 314 6,000  Level Tampa TRACON
07:27PM 28.3500 -82.3333 156° South 273 314 6,000 -540 Level Tampa TRACON
07:28PM 28.2833 -82.3500 192° South 266 306 5,000 -1,020 Descending Tampa TRACON
07:29PM 28.2167 -82.4000 213° Southwest 252 290 4,000 -900 Descending Tampa TRACON
07:30PM 28.1833 -82.4500 233° Southwest 215 247 3,200 -600 Descending Tampa TRACON
07:31PM 28.1333 -82.4833 210° Southwest 168 193 2,800 -540 Descending Tampa TRACON
07:32PM 28.1000 -82.5167 221° Southwest 165 190 2,200 -720 Descending Tampa TRACON
07:33PM 28.0667 -82.5333 204° Southwest 141 162 1,500 -780 Descending Tampa TRACON
07:34PM 28.0333 -82.5333 180° South 156 180 700 -780 Descending Tampa TRACON
07:37PM 27.9667 -82.5167 161° South  Level FlightAware Approximate